createdAt,value
2022-11-24T00:01:15.847Z,100702.25
2022-11-24T00:03:43.454Z,100709.63
2022-11-24T00:06:12.442Z,100716.88
2022-11-24T00:08:40.399Z,100711.78
2022-11-24T00:11:11.540Z,100717.53
2022-11-24T00:13:41.260Z,100715.09
2022-11-24T00:16:19.272Z,100719.69
2022-11-24T00:18:48.066Z,100717.97
2022-11-24T00:21:15.860Z,100728.63
2022-11-24T00:23:42.566Z,100725.78
2022-11-24T00:26:10.768Z,100728.22
2022-11-24T00:28:38.031Z,100729.72
2022-11-24T00:31:06.267Z,100741.88
2022-11-24T00:33:32.886Z,100742.72
2022-11-24T00:36:00.324Z,100733.66
2022-11-24T00:38:26.895Z,100743.28
2022-11-24T00:40:53.534Z,100739.63
2022-11-24T00:43:20.320Z,100751.16
2022-11-24T00:45:46.963Z,100750.22
2022-11-24T00:48:13.549Z,100762.59
2022-11-24T00:50:40.091Z,100765.38
2022-11-24T00:53:06.635Z,100766.66
2022-11-24T00:55:33.138Z,100765.16
2022-11-24T00:57:59.615Z,100769.84
2022-11-24T01:00:26.543Z,100773.56
2022-11-24T01:02:53.250Z,100775.59
2022-11-24T01:05:19.879Z,100780.50
2022-11-24T01:07:46.331Z,100789.66
2022-11-24T01:10:13.005Z,100797.16
2022-11-24T01:12:39.549Z,100802.47
2022-11-24T01:15:06.611Z,100802.47
2022-11-24T01:17:33.160Z,100806.09
2022-11-24T01:19:59.682Z,100813.47
2022-11-24T01:22:27.488Z,100813.75
2022-11-24T01:24:53.978Z,100822.91
2022-11-24T01:27:20.451Z,100830.16
2022-11-24T01:29:46.912Z,100839.22
2022-11-24T01:32:13.398Z,100841.91
2022-11-24T01:34:39.867Z,100846.38
2022-11-24T01:37:06.313Z,100846.38
2022-11-24T01:39:32.807Z,100838.38
2022-11-24T01:42:01.896Z,100826.97
2022-11-24T01:44:30.743Z,100835.91
2022-11-24T01:47:07.525Z,100835.19
2022-11-24T01:49:40.045Z,100836.13
2022-11-24T01:52:12.800Z,100827.19
2022-11-24T01:54:43.973Z,100820.13
2022-11-24T01:57:16.611Z,100819.28
2022-11-24T01:59:45.109Z,100817.34
2022-11-24T02:02:12.045Z,100824.28
2022-11-24T02:04:38.993Z,100819.72
2022-11-24T02:07:06.588Z,100825.03
2022-11-24T02:09:46.901Z,100826.97
2022-11-24T02:12:13.531Z,100823.53
2022-11-24T02:14:41.059Z,100828.88
2022-11-24T02:17:08.575Z,100831.53
2022-11-24T02:19:46.333Z,100828.88
2022-11-24T02:22:18.917Z,100834.13
2022-11-24T02:24:52.673Z,100830.78
2022-11-24T02:27:19.977Z,100834.41
2022-11-24T02:29:46.672Z,100843.34
2022-11-24T02:32:13.450Z,100842.50
2022-11-24T02:34:39.986Z,100836.44
2022-11-24T02:37:06.453Z,100842.41
2022-11-24T02:39:33.272Z,100838.03
2022-11-24T02:42:04.952Z,100841.44
2022-11-24T02:44:36.518Z,100839.94
2022-11-24T02:47:11.359Z,100837.28
2022-11-24T02:49:38.728Z,100838.25
2022-11-24T02:52:06.040Z,100841.09
2022-11-24T02:54:32.924Z,100841.09
2022-11-24T02:56:59.747Z,100847.41
2022-11-24T02:59:26.235Z,100851.09
2022-11-24T03:01:52.987Z,100846.91
2022-11-24T03:04:19.586Z,100844.56
2022-11-24T03:06:46.168Z,100850.94
2022-11-24T03:09:12.698Z,100851.91
2022-11-24T03:11:39.307Z,100861.63
2022-11-24T03:14:06.737Z,100860.75
2022-11-24T03:16:33.515Z,100861.63
2022-11-24T03:19:00.477Z,100864.28
2022-11-24T03:21:27.144Z,100867.78
2022-11-24T03:23:53.989Z,100873.13
2022-11-24T03:26:22.028Z,100878.47
2022-11-24T03:28:48.555Z,100881.13
2022-11-24T03:31:15.549Z,100881.88
2022-11-24T03:33:42.078Z,100880.19
2022-11-24T03:36:09.194Z,100889.13
2022-11-24T03:38:36.091Z,100887.59
2022-11-24T03:41:02.661Z,100895.06
2022-11-24T03:43:29.202Z,100903.97
2022-11-24T03:45:55.738Z,100902.25
2022-11-24T03:48:22.306Z,100894.25
2022-11-24T03:50:56.095Z,100894.00
2022-11-24T03:53:23.570Z,100891.25
2022-11-24T03:55:50.080Z,100899.78
2022-11-24T03:58:16.587Z,100895.03
2022-11-24T04:00:43.144Z,100894.91
2022-11-24T04:03:09.685Z,100894.72
2022-11-24T04:05:36.675Z,100896.34
2022-11-24T04:08:05.364Z,100893.50
2022-11-24T04:10:33.387Z,100904.03
2022-11-24T04:12:59.887Z,100905.84
2022-11-24T04:15:26.517Z,100914.81
2022-11-24T04:17:54.990Z,100923.75
2022-11-24T04:20:22.462Z,100927.41
2022-11-24T04:22:50.880Z,100934.44
2022-11-24T04:25:17.573Z,100934.63
2022-11-24T04:27:44.392Z,100946.25
2022-11-24T04:30:11.781Z,100953.41
2022-11-24T04:32:38.219Z,100955.22
2022-11-24T04:35:05.007Z,100955.97
2022-11-24T04:37:31.515Z,100955.97
2022-11-24T04:39:57.986Z,100953.19
2022-11-24T04:42:24.532Z,100962.25
2022-11-24T04:44:51.019Z,100973.88
2022-11-24T04:47:21.605Z,100975.78
2022-11-24T04:49:49.132Z,100984.72
2022-11-24T04:52:19.781Z,100984.81
2022-11-24T04:54:47.078Z,100984.72
2022-11-24T04:57:21.266Z,100989.13
2022-11-24T04:59:49.180Z,100997.13
2022-11-24T05:02:15.920Z,101007.88
2022-11-24T05:04:42.589Z,101010.63
2022-11-24T05:07:17.981Z,101019.38
2022-11-24T05:10:04.367Z,101014.81
2022-11-24T05:12:31.400Z,101013.13
2022-11-24T05:15:01.491Z,101013.00
2022-11-24T05:17:32.686Z,101014.63
2022-11-24T05:19:59.198Z,101014.63
2022-11-24T05:22:26.945Z,101015.47
2022-11-24T05:24:53.431Z,101027.75
2022-11-24T05:27:19.955Z,101030.44
2022-11-24T05:29:46.412Z,101028.72
2022-11-24T05:32:12.951Z,101026.81
2022-11-24T05:34:39.571Z,101022.34
2022-11-24T05:37:06.784Z,101038.44
2022-11-24T05:39:34.082Z,101029.59
2022-11-24T05:42:22.433Z,101028.72
2022-11-24T05:44:49.188Z,101026.16
2022-11-24T05:47:15.704Z,101027.84
2022-11-24T05:49:42.375Z,101022.50
2022-11-24T05:52:09.290Z,101027.84
2022-11-24T05:54:36.062Z,101031.47
2022-11-24T05:57:02.856Z,101036.72
2022-11-24T05:59:29.391Z,101032.16
2022-11-24T06:01:56.047Z,101030.81
2022-11-24T06:04:22.687Z,101039.56
2022-11-24T06:06:49.243Z,101033.28
2022-11-24T06:09:15.768Z,101028.13
2022-11-24T06:11:42.287Z,101039.03
2022-11-24T06:14:11.585Z,101049.19
2022-11-24T06:16:38.438Z,101051.28
2022-11-24T06:19:05.163Z,101050.63
2022-11-24T06:21:31.928Z,101057.00
2022-11-24T06:23:58.875Z,101072.22
2022-11-24T06:26:25.481Z,101071.47
2022-11-24T06:28:52.037Z,101080.31
2022-11-24T06:31:18.860Z,101091.94
2022-11-24T06:33:45.434Z,101089.38
2022-11-24T06:36:13.451Z,101096.44
2022-11-24T06:38:40.148Z,101105.28
2022-11-24T06:41:09.594Z,101108.78
2022-11-24T06:43:36.575Z,101102.63
2022-11-24T06:46:03.363Z,101100.03
2022-11-24T06:48:30.488Z,101091.09
2022-11-24T06:51:05.898Z,101104.13
2022-11-24T06:53:33.642Z,101102.13
2022-11-24T06:56:01.084Z,101106.44
2022-11-24T06:58:27.813Z,101112.41
2022-11-24T07:00:54.745Z,101115.75
2022-11-24T07:03:21.662Z,101131.47
2022-11-24T07:05:48.247Z,101136.34
2022-11-24T07:08:17.955Z,101136.91
2022-11-24T07:10:45.458Z,101141.13
2022-11-24T07:13:11.932Z,101142.63
2022-11-24T07:15:38.500Z,101134.56
2022-11-24T07:18:05.118Z,101145.06
2022-11-24T07:20:31.809Z,101145.59
2022-11-24T07:22:58.907Z,101140.81
2022-11-24T07:25:25.878Z,101141.50
2022-11-24T07:27:57.004Z,101146.66
2022-11-24T07:30:24.153Z,101151.63
2022-11-24T07:32:50.655Z,101158.38
2022-11-24T07:35:17.824Z,101166.06
2022-11-24T07:37:44.636Z,101159.72
2022-11-24T07:40:11.687Z,101164.84
2022-11-24T07:42:38.156Z,101169.03
2022-11-24T07:45:05.052Z,101179.41
2022-11-24T07:47:31.551Z,101180.94
2022-11-24T07:49:58.092Z,101184.19
2022-11-24T07:52:26.791Z,101185.72
2022-11-24T07:54:53.408Z,101177.31
2022-11-24T07:57:19.937Z,101185.03
2022-11-24T07:59:46.426Z,101191.75
2022-11-24T08:02:13.361Z,101202.06
2022-11-24T08:04:40.060Z,101197.16
2022-11-24T08:07:06.608Z,101200.31
2022-11-24T08:09:33.215Z,101201.63
2022-11-24T08:11:59.887Z,101193.22
2022-11-24T08:14:26.419Z,101188.41
2022-11-24T08:16:52.994Z,101203.94
2022-11-24T08:19:19.717Z,101200.88
2022-11-24T08:21:46.439Z,101197.59
2022-11-24T08:24:15.302Z,101195.59
2022-11-24T08:26:42.192Z,101197.84
2022-11-24T08:29:08.736Z,101198.19
2022-11-24T08:31:36.155Z,101203.88
2022-11-24T08:34:04.092Z,101210.84
2022-11-24T08:36:30.790Z,101209.59
2022-11-24T08:38:58.846Z,101206.50
2022-11-24T08:41:26.301Z,101211.72
2022-11-24T08:43:53.622Z,101216.22
2022-11-24T08:46:20.609Z,101218.13
2022-11-24T08:48:51.951Z,101219.88
2022-11-24T08:51:21.699Z,101225.75
2022-11-24T08:53:48.218Z,101217.53
2022-11-24T08:56:14.880Z,101208.31
2022-11-24T08:58:42.018Z,101219.31
2022-11-24T09:01:16.470Z,101229.75
2022-11-24T09:03:50.028Z,101238.31
2022-11-24T09:06:23.480Z,101241.41
2022-11-24T09:08:50.210Z,101241.09
2022-11-24T09:11:17.351Z,101248.06
2022-11-24T09:13:44.374Z,101249.75
2022-11-24T09:16:17.516Z,101254.16
2022-11-24T09:18:44.688Z,101244.41
2022-11-24T09:21:19.497Z,101239.31
2022-11-24T09:23:51.115Z,101249.50
2022-11-24T09:26:20.226Z,101247.78
2022-11-24T09:28:47.218Z,101247.22
2022-11-24T09:31:15.395Z,101252.13
2022-11-24T09:33:42.464Z,101255.88
2022-11-24T09:36:09.561Z,101272.09
2022-11-24T09:38:36.383Z,101276.09
2022-11-24T09:41:17.730Z,101268.34
2022-11-24T09:43:50.186Z,101269.69
2022-11-24T09:46:50.194Z,101265.78
2022-11-24T09:49:22.549Z,101266.66
2022-11-24T09:51:51.629Z,101269.59
2022-11-24T09:54:25.349Z,101271.72
2022-11-24T09:56:52.624Z,101270.69
2022-11-24T09:59:21.696Z,101280.22
2022-11-24T10:01:50.179Z,101283.75
2022-11-24T10:04:16.747Z,101280.09
2022-11-24T10:07:23.299Z,101281.81
2022-11-24T10:10:07.870Z,101278.75
2022-11-24T10:12:55.802Z,101278.09
2022-11-24T10:15:53.129Z,101273.94
2022-11-24T10:18:22.390Z,101270.03
2022-11-24T10:21:25.000Z,101269.66
2022-11-24T10:23:51.503Z,101265.66
2022-11-24T10:26:21.680Z,101264.91
2022-11-24T10:28:58.191Z,101278.34
2022-11-24T10:31:32.507Z,101273.06
2022-11-24T10:34:05.844Z,101273.69
2022-11-24T10:37:01.687Z,101266.59
2022-11-24T10:39:57.120Z,101270.00
2022-11-24T10:42:36.979Z,101261.66
2022-11-24T10:45:14.022Z,101268.59
2022-11-24T10:47:42.740Z,101269.19
2022-11-24T10:50:19.386Z,101270.00
2022-11-24T10:53:22.655Z,101253.66
2022-11-24T10:55:58.035Z,101259.44
2022-11-24T10:58:35.845Z,101259.69
2022-11-24T11:01:15.905Z,101261.94
2022-11-24T11:03:52.500Z,101262.28
2022-11-24T11:06:23.297Z,101261.22
2022-11-24T11:08:49.839Z,101266.66
2022-11-24T11:11:29.920Z,101262.44
2022-11-24T11:14:03.510Z,101267.44
2022-11-24T11:16:42.350Z,101260.78
2022-11-24T11:19:55.461Z,101248.47
2022-11-24T11:22:28.676Z,101233.00
2022-11-24T11:25:10.473Z,101232.16
2022-11-24T11:27:38.008Z,101232.44
2022-11-24T11:36:16.069Z,101238.25
2022-11-24T11:38:43.316Z,101237.00
2022-11-24T11:41:20.003Z,101239.69
2022-11-24T11:43:47.957Z,101240.53
2022-11-24T11:46:18.423Z,101231.59
2022-11-24T11:48:46.902Z,101233.47
2022-11-24T11:51:50.048Z,101235.44
2022-11-24T11:54:42.341Z,101238.97
2022-11-24T11:57:19.151Z,101243.25
2022-11-24T11:59:55.287Z,101244.97
2022-11-24T12:02:33.264Z,101226.22
2022-11-24T12:05:02.199Z,101229.91
2022-11-24T12:08:09.194Z,101227.75
2022-11-24T12:10:39.302Z,101223.09
2022-11-24T12:13:33.659Z,101206.03
2022-11-24T12:16:27.674Z,101208.88
2022-11-24T12:19:06.335Z,101203.22
2022-11-24T12:21:57.918Z,101202.50
2022-11-24T12:24:43.585Z,101203.22
2022-11-24T12:27:24.691Z,101210.59
2022-11-24T12:29:57.802Z,101210.88
2022-11-24T12:32:55.108Z,101211.91
2022-11-24T12:35:27.998Z,101198.53
2022-11-24T12:38:14.562Z,101205.50
2022-11-24T12:41:18.007Z,101209.31
2022-11-24T12:43:52.404Z,101214.03
2022-11-24T12:46:40.426Z,101217.56
2022-11-24T12:49:21.472Z,101219.72
2022-11-24T12:51:53.785Z,101217.41
2022-11-24T12:54:21.794Z,101220.25
2022-11-24T12:57:12.859Z,101222.22
2022-11-24T12:59:39.280Z,101215.38
2022-11-24T13:02:24.773Z,101214.88
2022-11-24T13:04:53.870Z,101212.69
2022-11-24T13:07:26.095Z,101220.88
2022-11-24T13:10:46.455Z,101221.41
2022-11-24T13:13:11.838Z,101226.50
2022-11-24T13:18:51.919Z,101227.22
2022-11-24T13:21:30.391Z,101226.22
2022-11-24T13:23:58.219Z,101226.09
2022-11-24T13:26:30.872Z,101233.03
2022-11-24T13:29:12.933Z,101220.41
2022-11-24T13:31:44.688Z,101233.75
2022-11-24T13:34:39.292Z,101227.53
2022-11-24T13:37:33.791Z,101227.66
2022-11-24T13:40:14.341Z,101225.81
2022-11-24T13:42:56.260Z,101228.38
2022-11-24T13:45:45.275Z,101222.13
2022-11-24T13:48:21.660Z,101225.81
2022-11-24T13:50:52.191Z,101229.50
2022-11-24T13:53:24.815Z,101237.59
2022-11-24T13:56:00.352Z,101226.69
2022-11-24T13:58:31.270Z,101231.06
2022-11-24T14:01:22.147Z,101225.69
2022-11-24T14:04:35.513Z,101234.63
2022-11-24T14:07:09.530Z,101235.34
2022-11-24T14:09:44.948Z,101230.84
2022-11-24T14:12:21.333Z,101229.03
2022-11-24T14:14:49.891Z,101237.34
2022-11-24T14:17:20.834Z,101238.47
2022-11-24T14:19:49.362Z,101230.97
2022-11-24T14:22:21.773Z,101228.16
2022-11-24T14:24:57.100Z,101227.16
2022-11-24T14:27:31.998Z,101223.34
2022-11-24T14:30:05.856Z,101219.78
2022-11-24T14:32:32.407Z,101221.75
2022-11-24T14:34:59.065Z,101225.44
2022-11-24T14:37:25.784Z,101227.44
2022-11-24T14:39:52.488Z,101228.41
2022-11-24T14:42:24.438Z,101224.75
2022-11-24T14:44:56.425Z,101244.59
2022-11-24T14:47:32.422Z,101248.44
2022-11-24T14:50:12.481Z,101259.34
2022-11-24T14:52:53.326Z,101256.94
2022-11-24T14:55:28.161Z,101261.47
2022-11-24T14:57:54.905Z,101260.72
2022-11-24T15:00:24.277Z,101254.50
2022-11-24T15:03:16.168Z,101267.25
2022-11-24T15:06:00.505Z,101263.84
2022-11-24T15:08:42.413Z,101259.41
2022-11-24T15:11:08.958Z,101266.91
2022-11-24T15:13:38.267Z,101264.38
2022-11-24T15:16:07.384Z,101265.47
2022-11-24T15:18:45.268Z,101272.00
2022-11-24T15:21:17.459Z,101263.47
2022-11-24T15:24:04.855Z,101262.88
2022-11-24T15:26:36.729Z,101258.88
2022-11-24T15:29:06.946Z,101265.69
2022-11-24T15:31:33.500Z,101254.28
2022-11-24T15:34:00.118Z,101249.44
2022-11-24T15:36:26.703Z,101256.72
2022-11-24T15:38:53.245Z,101256.09
2022-11-24T15:41:21.425Z,101268.22
2022-11-24T15:43:47.979Z,101266.66
2022-11-24T15:46:14.603Z,101275.88
2022-11-24T15:48:41.506Z,101282.38
2022-11-24T15:51:13.308Z,101285.19
2022-11-24T15:53:43.355Z,101291.69
2022-11-24T15:56:16.237Z,101289.00
2022-11-24T15:58:42.771Z,101299.78
2022-11-24T16:01:09.339Z,101301.63
2022-11-24T16:03:46.892Z,101318.41
2022-11-24T16:06:24.127Z,101323.47
2022-11-24T16:08:52.804Z,101325.34
2022-11-24T16:11:19.401Z,101330.38
2022-11-24T16:13:51.999Z,101335.97
2022-11-24T16:16:20.009Z,101340.63
2022-11-24T16:18:46.663Z,101356.78
2022-11-24T16:21:13.268Z,101351.78
2022-11-24T16:23:40.628Z,101356.81
2022-11-24T16:26:07.499Z,101355.56
2022-11-24T16:28:34.016Z,101362.56
2022-11-24T16:31:00.599Z,101367.22
2022-11-24T16:33:29.178Z,101374.41
2022-11-24T16:35:55.651Z,101380.50
2022-11-24T16:38:22.298Z,101387.47
2022-11-24T16:40:53.013Z,101394.91
2022-11-24T16:43:19.813Z,101389.81
2022-11-24T16:45:46.590Z,101395.47
2022-11-24T16:48:13.186Z,101393.84
2022-11-24T16:50:39.761Z,101395.16
2022-11-24T16:53:06.268Z,101396.25
2022-11-24T16:55:32.810Z,101396.34
2022-11-24T16:57:59.327Z,101398.19
2022-11-24T17:00:25.822Z,101401.81
2022-11-24T17:02:52.577Z,101399.28
2022-11-24T17:05:19.109Z,101397.88
2022-11-24T17:07:45.639Z,101398.25
2022-11-24T17:10:12.153Z,101395.75
2022-11-24T17:12:38.748Z,101398.69
2022-11-24T17:18:22.434Z,101397.44
2022-11-24T17:20:38.729Z,101397.88
2022-11-24T17:23:05.290Z,101400.78
2022-11-24T17:25:32.667Z,101401.13
2022-11-24T17:27:59.337Z,101409.38
2022-11-24T17:30:25.882Z,101404.34
2022-11-24T17:32:56.631Z,101403.75
2022-11-24T17:35:23.670Z,101404.03
2022-11-24T17:37:50.288Z,101406.88
2022-11-24T17:40:34.315Z,101417.69
2022-11-24T17:43:01.355Z,101413.53
2022-11-24T17:45:28.906Z,101405.66
2022-11-24T17:47:56.226Z,101413.94
2022-11-24T17:50:26.093Z,101422.09
2022-11-24T17:52:53.580Z,101431.22
2022-11-24T17:55:20.127Z,101437.03
2022-11-24T17:57:46.771Z,101443.91
2022-11-24T18:00:13.974Z,101443.69
2022-11-24T18:02:40.472Z,101443.44
2022-11-24T18:05:07.487Z,101439.44
2022-11-24T18:07:36.596Z,101443.22
2022-11-24T18:10:04.254Z,101449.41
2022-11-24T18:12:31.042Z,101443.97
2022-11-24T18:14:57.485Z,101441.28
2022-11-24T18:17:24.078Z,101448.56
2022-11-24T18:19:50.656Z,101451.56
2022-11-24T18:22:17.602Z,101450.25
2022-11-24T18:24:47.302Z,101451.56
2022-11-24T18:27:13.823Z,101450.03
2022-11-24T18:29:40.291Z,101443.94
2022-11-24T18:32:06.962Z,101436.00
2022-11-24T18:34:34.000Z,101441.44
2022-11-24T18:37:00.810Z,101445.19
2022-11-24T18:39:28.443Z,101454.50
2022-11-24T18:41:54.991Z,101462.00
2022-11-24T18:44:21.480Z,101462.97
2022-11-24T18:46:49.385Z,101464.13
2022-11-24T18:49:15.909Z,101468.38
2022-11-24T18:51:42.357Z,101471.88
2022-11-24T18:54:08.938Z,101483.16
2022-11-24T18:56:35.483Z,101485.28
2022-11-24T18:59:02.325Z,101489.13
2022-11-24T19:01:29.419Z,101489.22
2022-11-24T19:03:57.976Z,101488.56
2022-11-24T19:06:32.329Z,101493.16
2022-11-24T19:09:20.453Z,101493.16
2022-11-24T19:11:47.367Z,101486.16
2022-11-24T19:14:15.963Z,101497.84
2022-11-24T19:16:43.240Z,101484.66
2022-11-24T19:19:12.340Z,101482.94
2022-11-24T19:21:39.934Z,101482.19
2022-11-24T19:24:07.861Z,101486.56
2022-11-24T19:26:37.440Z,101474.81
2022-11-24T19:29:04.710Z,101477.19
2022-11-24T19:31:31.539Z,101475.06
2022-11-24T19:34:00.660Z,101477.47
2022-11-24T19:36:29.896Z,101478.31
2022-11-24T19:38:57.584Z,101473.81
2022-11-24T19:41:29.904Z,101480.78
2022-11-24T19:43:57.936Z,101480.03
2022-11-24T19:46:27.124Z,101478.22
2022-11-24T19:48:56.146Z,101480.78
2022-11-24T19:51:26.487Z,101479.84
2022-11-24T19:53:56.342Z,101486.06
2022-11-24T19:56:24.866Z,101490.44
2022-11-24T19:58:52.094Z,101480.47
2022-11-24T20:01:22.830Z,101480.47
2022-11-24T20:03:59.002Z,101480.41
2022-11-24T20:06:30.617Z,101482.00
2022-11-24T20:08:58.694Z,101476.38
2022-11-24T20:11:25.222Z,101482.38
2022-11-24T20:13:51.899Z,101482.09
2022-11-24T20:16:28.318Z,101484.63
2022-11-24T20:18:56.759Z,101477.47
2022-11-24T20:21:33.902Z,101486.16
2022-11-24T20:24:10.254Z,101494.09
2022-11-24T20:26:39.736Z,101496.69
2022-11-24T20:29:06.650Z,101511.88
2022-11-24T20:31:35.968Z,101513.50
2022-11-24T20:34:03.942Z,101513.38
2022-11-24T20:36:32.013Z,101514.38
2022-11-24T20:39:00.381Z,101514.44
2022-11-24T20:41:29.186Z,101512.75
2022-11-24T20:43:57.994Z,101509.09
2022-11-24T20:46:27.170Z,101514.66
2022-11-24T20:48:54.537Z,101523.09
2022-11-24T20:51:28.933Z,101527.13
2022-11-24T20:53:58.992Z,101524.19
2022-11-24T20:56:28.095Z,101528.31
2022-11-24T20:58:55.375Z,101538.53
2022-11-24T21:01:29.368Z,101536.16
2022-11-24T21:03:57.950Z,101542.75
2022-11-24T21:06:25.071Z,101543.81
2022-11-24T21:08:52.077Z,101545.72
2022-11-24T21:11:19.216Z,101543.25
2022-11-24T21:13:46.061Z,101540.75
2022-11-24T21:16:22.140Z,101539.81
2022-11-24T21:18:51.072Z,101545.06
2022-11-24T21:21:19.152Z,101541.34
2022-11-24T21:23:46.163Z,101551.97
2022-11-24T21:26:16.619Z,101542.97
2022-11-24T21:28:45.897Z,101550.91
2022-11-24T21:31:14.938Z,101543.72
2022-11-24T21:33:43.268Z,101549.94
2022-11-24T21:36:09.894Z,101540.84
2022-11-24T21:38:36.684Z,101546.09
2022-11-24T21:41:05.755Z,101553.06
2022-11-24T21:43:33.039Z,101548.47
2022-11-24T21:46:03.876Z,101550.22
2022-11-24T21:48:31.273Z,101549.25
2022-11-24T21:50:59.119Z,101540.28
2022-11-24T21:53:26.535Z,101537.50
2022-11-24T21:55:57.376Z,101535.69
2022-11-24T21:58:24.719Z,101524.00
2022-11-24T22:00:51.624Z,101529.28
2022-11-24T22:03:19.059Z,101528.41
2022-11-24T22:05:56.123Z,101521.31
2022-11-24T22:08:23.685Z,101528.50
2022-11-24T22:10:50.453Z,101530.41
2022-11-24T22:13:17.043Z,101533.00
2022-11-24T22:15:43.794Z,101527.56
2022-11-24T22:18:10.609Z,101532.91
2022-11-24T22:20:37.118Z,101534.63
2022-11-24T22:23:04.161Z,101534.63
2022-11-24T22:25:30.751Z,101541.81
2022-11-24T22:27:58.286Z,101544.38
2022-11-24T22:30:24.823Z,101550.97
2022-11-24T22:32:51.574Z,101560.22
2022-11-24T22:35:18.058Z,101564.97
2022-11-24T22:37:44.553Z,101563.81
2022-11-24T22:40:11.310Z,101569.75
2022-11-24T22:42:37.760Z,101570.38
2022-11-24T22:45:04.687Z,101566.78
2022-11-24T22:47:31.197Z,101563.78
2022-11-24T22:49:57.658Z,101566.16
2022-11-24T22:52:24.211Z,101556.09
2022-11-24T22:54:50.867Z,101556.88
2022-11-24T22:57:17.344Z,101549.69
2022-11-24T22:59:43.878Z,101538.03
2022-11-24T23:02:10.630Z,101526.31
2022-11-24T23:04:37.448Z,101519.91
2022-11-24T23:07:04.158Z,101521.53
2022-11-24T23:09:30.693Z,101515.19
2022-11-24T23:11:57.191Z,101523.34
2022-11-24T23:14:23.715Z,101521.63
2022-11-24T23:16:50.277Z,101527.84
2022-11-24T23:19:16.804Z,101531.28
2022-11-24T23:21:43.200Z,101526.78
2022-11-24T23:24:10.588Z,101513.50
2022-11-24T23:26:39.363Z,101519.91
2022-11-24T23:29:06.320Z,101502.03
2022-11-24T23:31:33.007Z,101505.56
2022-11-24T23:34:01.521Z,101510.06
2022-11-24T23:36:28.689Z,101517.97
2022-11-24T23:38:55.227Z,101521.63
2022-11-24T23:41:24.297Z,101509.31
2022-11-24T23:43:52.329Z,101522.88
2022-11-24T23:46:21.485Z,101523.09
2022-11-24T23:48:48.971Z,101516.88
2022-11-24T23:51:17.060Z,101516.88
2022-11-24T23:53:43.967Z,101508.06
2022-11-24T23:56:15.082Z,101502.72
2022-11-24T23:58:41.865Z,101502.72
